sensor_id;sensor_type;location;lat;lon;timestamp;P1;durP1;ratioP1;P2;durP2;ratioP2
10343;SDS011;5217;43.960;10.954;2023-04-24T00:00:00;7.60;;;4.00;;
10343;SDS011;5217;43.960;10.954;2023-04-24T00:02:31;7.73;;;4.23;;
10343;SDS011;5217;43.960;10.954;2023-04-24T00:05:01;6.83;;;3.80;;
10343;SDS011;5217;43.960;10.954;2023-04-24T00:07:30;7.13;;;4.10;;
10343;SDS011;5217;43.960;10.954;2023-04-24T00:09:59;5.47;;;3.77;;
10343;SDS011;5217;43.960;10.954;2023-04-24T00:12:27;4.70;;;3.50;;
10343;SDS011;5217;43.960;10.954;2023-04-24T00:14:57;6.13;;;3.83;;
10343;SDS011;5217;43.960;10.954;2023-04-24T00:17:25;4.33;;;3.40;;
10343;SDS011;5217;43.960;10.954;2023-04-24T00:19:54;5.47;;;3.40;;
10343;SDS011;5217;43.960;10.954;2023-04-24T00:22:25;6.10;;;3.63;;
10343;SDS011;5217;43.960;10.954;2023-04-24T00:24:53;7.00;;;3.90;;
10343;SDS011;5217;43.960;10.954;2023-04-24T00:27:22;4.03;;;3.17;;
10343;SDS011;5217;43.960;10.954;2023-04-24T00:29:50;5.23;;;3.77;;
10343;SDS011;5217;43.960;10.954;2023-04-24T00:32:20;4.97;;;3.40;;
10343;SDS011;5217;43.960;10.954;2023-04-24T00:34:48;4.67;;;3.50;;
10343;SDS011;5217;43.960;10.954;2023-04-24T00:37:16;5.07;;;3.50;;
10343;SDS011;5217;43.960;10.954;2023-04-24T00:39:45;4.30;;;3.67;;
10343;SDS011;5217;43.960;10.954;2023-04-24T00:42:13;4.53;;;3.37;;
10343;SDS011;5217;43.960;10.954;2023-04-24T00:44:42;4.10;;;3.67;;
10343;SDS011;5217;43.960;10.954;2023-04-24T00:47:10;4.67;;;3.33;;
10343;SDS011;5217;43.960;10.954;2023-04-24T00:49:41;5.20;;;3.60;;
10343;SDS011;5217;43.960;10.954;2023-04-24T00:52:10;6.07;;;3.47;;
10343;SDS011;5217;43.960;10.954;2023-04-24T00:54:38;4.30;;;3.30;;
10343;SDS011;5217;43.960;10.954;2023-04-24T00:57:07;4.40;;;3.60;;
10343;SDS011;5217;43.960;10.954;2023-04-24T00:59:35;4.47;;;3.30;;
10343;SDS011;5217;43.960;10.954;2023-04-24T01:02:04;4.67;;;3.57;;
10343;SDS011;5217;43.960;10.954;2023-04-24T01:04:32;5.67;;;3.40;;
10343;SDS011;5217;43.960;10.954;2023-04-24T01:07:02;4.97;;;3.80;;
10343;SDS011;5217;43.960;10.954;2023-04-24T01:09:36;5.80;;;3.70;;
10343;SDS011;5217;43.960;10.954;2023-04-24T01:12:05;5.50;;;3.50;;
10343;SDS011;5217;43.960;10.954;2023-04-24T01:14:35;8.30;;;4.03;;
10343;SDS011;5217;43.960;10.954;2023-04-24T01:17:05;8.13;;;3.77;;
10343;SDS011;5217;43.960;10.954;2023-04-24T01:19:33;5.10;;;3.50;;
10343;SDS011;5217;43.960;10.954;2023-04-24T01:22:03;5.73;;;3.27;;
10343;SDS011;5217;43.960;10.954;2023-04-24T01:24:36;6.00;;;3.60;;
10343;SDS011;5217;43.960;10.954;2023-04-24T01:27:05;6.07;;;3.43;;
10343;SDS011;5217;43.960;10.954;2023-04-24T01:29:34;4.30;;;3.53;;
10343;SDS011;5217;43.960;10.954;2023-04-24T01:32:03;6.07;;;3.87;;
10343;SDS011;5217;43.960;10.954;2023-04-24T01:34:32;8.83;;;4.00;;
10343;SDS011;5217;43.960;10.954;2023-04-24T01:37:00;8.60;;;3.73;;
10343;SDS011;5217;43.960;10.954;2023-04-24T01:39:30;6.97;;;3.63;;
10343;SDS011;5217;43.960;10.954;2023-04-24T01:41:59;6.07;;;3.90;;
10343;SDS011;5217;43.960;10.954;2023-04-24T01:44:28;6.67;;;3.80;;
10343;SDS011;5217;43.960;10.954;2023-04-24T01:46:57;7.17;;;3.43;;
10343;SDS011;5217;43.960;10.954;2023-04-24T01:49:27;6.67;;;3.70;;
10343;SDS011;5217;43.960;10.954;2023-04-24T01:51:56;7.87;;;3.70;;
10343;SDS011;5217;43.960;10.954;2023-04-24T01:54:24;7.30;;;3.73;;
10343;SDS011;5217;43.960;10.954;2023-04-24T01:56:54;5.00;;;3.27;;
10343;SDS011;5217;43.960;10.954;2023-04-24T01:59:22;5.90;;;3.37;;
10343;SDS011;5217;43.960;10.954;2023-04-24T02:01:52;5.27;;;3.57;;
10343;SDS011;5217;43.960;10.954;2023-04-24T02:04:21;5.67;;;3.50;;
10343;SDS011;5217;43.960;10.954;2023-04-24T02:06:49;5.00;;;3.50;;
10343;SDS011;5217;43.960;10.954;2023-04-24T02:09:17;7.23;;;4.00;;
10343;SDS011;5217;43.960;10.954;2023-04-24T02:11:46;5.63;;;3.60;;
10343;SDS011;5217;43.960;10.954;2023-04-24T02:14:15;4.77;;;3.33;;
10343;SDS011;5217;43.960;10.954;2023-04-24T02:16:43;7.37;;;3.60;;
10343;SDS011;5217;43.960;10.954;2023-04-24T02:19:12;4.47;;;3.27;;
10343;SDS011;5217;43.960;10.954;2023-04-24T02:21:40;6.17;;;3.57;;
10343;SDS011;5217;43.960;10.954;2023-04-24T02:24:09;4.97;;;3.70;;
10343;SDS011;5217;43.960;10.954;2023-04-24T02:26:37;4.83;;;3.50;;
10343;SDS011;5217;43.960;10.954;2023-04-24T02:29:05;4.47;;;3.47;;
10343;SDS011;5217;43.960;10.954;2023-04-24T02:31:35;7.63;;;3.67;;
10343;SDS011;5217;43.960;10.954;2023-04-24T02:34:03;5.03;;;3.50;;
10343;SDS011;5217;43.960;10.954;2023-04-24T02:36:34;8.50;;;3.90;;
10343;SDS011;5217;43.960;10.954;2023-04-24T02:39:03;5.73;;;3.80;;
10343;SDS011;5217;43.960;10.954;2023-04-24T02:41:31;5.40;;;3.70;;
10343;SDS011;5217;43.960;10.954;2023-04-24T02:43:59;6.90;;;3.77;;
10343;SDS011;5217;43.960;10.954;2023-04-24T02:46:28;5.50;;;3.70;;
10343;SDS011;5217;43.960;10.954;2023-04-24T02:48:57;5.87;;;3.80;;
10343;SDS011;5217;43.960;10.954;2023-04-24T02:51:26;6.37;;;3.77;;
10343;SDS011;5217;43.960;10.954;2023-04-24T02:53:54;8.00;;;3.90;;
10343;SDS011;5217;43.960;10.954;2023-04-24T02:56:22;6.07;;;3.90;;
10343;SDS011;5217;43.960;10.954;2023-04-24T02:58:51;6.33;;;4.30;;
10343;SDS011;5217;43.960;10.954;2023-04-24T03:01:19;4.77;;;3.37;;
10343;SDS011;5217;43.960;10.954;2023-04-24T03:03:47;5.90;;;3.67;;
10343;SDS011;5217;43.960;10.954;2023-04-24T03:06:17;6.27;;;3.80;;
10343;SDS011;5217;43.960;10.954;2023-04-24T03:08:47;4.93;;;3.40;;
10343;SDS011;5217;43.960;10.954;2023-04-24T03:11:16;5.90;;;3.77;;
10343;SDS011;5217;43.960;10.954;2023-04-24T03:13:44;7.33;;;3.77;;
10343;SDS011;5217;43.960;10.954;2023-04-24T03:16:12;6.07;;;3.77;;
10343;SDS011;5217;43.960;10.954;2023-04-24T03:18:41;5.27;;;3.60;;
10343;SDS011;5217;43.960;10.954;2023-04-24T03:21:09;6.13;;;3.70;;
10343;SDS011;5217;43.960;10.954;2023-04-24T03:23:39;7.70;;;4.13;;
10343;SDS011;5217;43.960;10.954;2023-04-24T03:26:07;7.47;;;3.60;;
10343;SDS011;5217;43.960;10.954;2023-04-24T03:28:35;8.13;;;4.57;;
10343;SDS011;5217;43.960;10.954;2023-04-24T03:31:04;9.77;;;4.70;;
10343;SDS011;5217;43.960;10.954;2023-04-24T03:33:32;7.50;;;4.17;;
10343;SDS011;5217;43.960;10.954;2023-04-24T03:36:00;8.10;;;4.07;;
10343;SDS011;5217;43.960;10.954;2023-04-24T03:38:29;9.37;;;4.77;;
10343;SDS011;5217;43.960;10.954;2023-04-24T03:40:58;10.40;;;6.00;;
10343;SDS011;5217;43.960;10.954;2023-04-24T03:43:27;10.13;;;5.97;;
10343;SDS011;5217;43.960;10.954;2023-04-24T03:45:55;12.43;;;7.13;;
10343;SDS011;5217;43.960;10.954;2023-04-24T03:48:23;17.07;;;6.80;;
10343;SDS011;5217;43.960;10.954;2023-04-24T03:50:52;7.73;;;4.53;;
10343;SDS011;5217;43.960;10.954;2023-04-24T03:53:20;5.07;;;3.73;;
10343;SDS011;5217;43.960;10.954;2023-04-24T03:55:49;7.60;;;3.77;;
10343;SDS011;5217;43.960;10.954;2023-04-24T03:58:18;9.37;;;3.93;;
10343;SDS011;5217;43.960;10.954;2023-04-24T04:00:47;8.07;;;4.30;;
10343;SDS011;5217;43.960;10.954;2023-04-24T04:03:16;8.27;;;3.93;;
10343;SDS011;5217;43.960;10.954;2023-04-24T04:05:44;8.43;;;4.00;;
10343;SDS011;5217;43.960;10.954;2023-04-24T04:08:13;5.60;;;3.73;;
10343;SDS011;5217;43.960;10.954;2023-04-24T04:10:41;8.03;;;3.97;;
10343;SDS011;5217;43.960;10.954;2023-04-24T04:13:09;9.50;;;5.97;;
10343;SDS011;5217;43.960;10.954;2023-04-24T04:15:39;11.20;;;5.00;;
10343;SDS011;5217;43.960;10.954;2023-04-24T04:18:08;8.63;;;4.10;;
10343;SDS011;5217;43.960;10.954;2023-04-24T04:20:36;8.30;;;3.83;;
10343;SDS011;5217;43.960;10.954;2023-04-24T04:23:05;8.33;;;4.10;;
10343;SDS011;5217;43.960;10.954;2023-04-24T04:25:33;7.37;;;4.40;;
10343;SDS011;5217;43.960;10.954;2023-04-24T04:28:01;6.70;;;4.07;;
10343;SDS011;5217;43.960;10.954;2023-04-24T04:30:30;6.60;;;4.00;;
10343;SDS011;5217;43.960;10.954;2023-04-24T04:32:59;6.57;;;4.10;;
10343;SDS011;5217;43.960;10.954;2023-04-24T04:35:29;7.47;;;4.43;;
10343;SDS011;5217;43.960;10.954;2023-04-24T04:37:57;9.33;;;4.50;;
10343;SDS011;5217;43.960;10.954;2023-04-24T04:40:26;8.87;;;4.00;;
10343;SDS011;5217;43.960;10.954;2023-04-24T04:42:54;6.70;;;4.20;;
10343;SDS011;5217;43.960;10.954;2023-04-24T04:45:23;7.00;;;4.13;;
10343;SDS011;5217;43.960;10.954;2023-04-24T04:47:53;11.20;;;4.10;;
10343;SDS011;5217;43.960;10.954;2023-04-24T04:50:24;9.03;;;3.80;;
10343;SDS011;5217;43.960;10.954;2023-04-24T04:52:53;8.27;;;4.00;;
10343;SDS011;5217;43.960;10.954;2023-04-24T04:55:21;7.83;;;3.67;;
10343;SDS011;5217;43.960;10.954;2023-04-24T04:57:50;6.63;;;3.83;;
10343;SDS011;5217;43.960;10.954;2023-04-24T05:00:19;7.80;;;3.97;;
10343;SDS011;5217;43.960;10.954;2023-04-24T05:02:47;9.07;;;3.93;;
10343;SDS011;5217;43.960;10.954;2023-04-24T05:05:16;7.47;;;3.50;;
10343;SDS011;5217;43.960;10.954;2023-04-24T05:07:46;9.53;;;3.77;;
10343;SDS011;5217;43.960;10.954;2023-04-24T05:10:14;7.70;;;3.97;;
10343;SDS011;5217;43.960;10.954;2023-04-24T05:12:43;8.00;;;3.73;;
10343;SDS011;5217;43.960;10.954;2023-04-24T05:15:11;8.73;;;3.90;;
10343;SDS011;5217;43.960;10.954;2023-04-24T05:17:40;6.63;;;3.70;;
10343;SDS011;5217;43.960;10.954;2023-04-24T05:20:08;8.60;;;3.90;;
10343;SDS011;5217;43.960;10.954;2023-04-24T05:22:37;7.00;;;3.73;;
10343;SDS011;5217;43.960;10.954;2023-04-24T05:25:07;8.07;;;4.03;;
10343;SDS011;5217;43.960;10.954;2023-04-24T05:27:35;6.93;;;3.43;;
10343;SDS011;5217;43.960;10.954;2023-04-24T05:30:04;8.10;;;3.97;;
10343;SDS011;5217;43.960;10.954;2023-04-24T05:32:33;7.90;;;4.00;;
10343;SDS011;5217;43.960;10.954;2023-04-24T05:35:02;8.40;;;3.67;;
10343;SDS011;5217;43.960;10.954;2023-04-24T05:37:34;9.00;;;3.47;;
10343;SDS011;5217;43.960;10.954;2023-04-24T05:40:02;10.17;;;3.43;;
10343;SDS011;5217;43.960;10.954;2023-04-24T05:42:33;9.03;;;3.77;;
10343;SDS011;5217;43.960;10.954;2023-04-24T05:45:01;10.37;;;4.60;;
10343;SDS011;5217;43.960;10.954;2023-04-24T05:47:30;18.40;;;8.60;;
10343;SDS011;5217;43.960;10.954;2023-04-24T05:49:59;15.40;;;8.00;;
10343;SDS011;5217;43.960;10.954;2023-04-24T05:52:27;14.67;;;6.03;;
10343;SDS011;5217;43.960;10.954;2023-04-24T05:54:55;11.27;;;4.50;;
10343;SDS011;5217;43.960;10.954;2023-04-24T05:57:24;9.57;;;4.33;;
10343;SDS011;5217;43.960;10.954;2023-04-24T05:59:53;9.60;;;4.07;;
10343;SDS011;5217;43.960;10.954;2023-04-24T06:02:22;9.80;;;6.53;;
10343;SDS011;5217;43.960;10.954;2023-04-24T06:04:50;11.13;;;5.53;;
10343;SDS011;5217;43.960;10.954;2023-04-24T06:07:19;12.20;;;4.60;;
10343;SDS011;5217;43.960;10.954;2023-04-24T06:09:48;22.60;;;16.63;;
10343;SDS011;5217;43.960;10.954;2023-04-24T06:12:16;29.77;;;22.27;;
10343;SDS011;5217;43.960;10.954;2023-04-24T06:14:44;89.40;;;67.63;;
10343;SDS011;5217;43.960;10.954;2023-04-24T06:17:14;41.57;;;29.13;;
10343;SDS011;5217;43.960;10.954;2023-04-24T06:19:43;19.60;;;13.07;;
10343;SDS011;5217;43.960;10.954;2023-04-24T06:22:11;14.30;;;8.57;;
10343;SDS011;5217;43.960;10.954;2023-04-24T06:24:40;11.27;;;5.03;;
10343;SDS011;5217;43.960;10.954;2023-04-24T06:27:08;9.37;;;4.83;;
10343;SDS011;5217;43.960;10.954;2023-04-24T06:29:38;19.20;;;16.43;;
10343;SDS011;5217;43.960;10.954;2023-04-24T06:32:06;17.90;;;11.63;;
10343;SDS011;5217;43.960;10.954;2023-04-24T06:34:36;17.03;;;11.27;;
10343;SDS011;5217;43.960;10.954;2023-04-24T06:37:05;30.43;;;20.30;;
10343;SDS011;5217;43.960;10.954;2023-04-24T06:39:33;21.30;;;14.63;;
10343;SDS011;5217;43.960;10.954;2023-04-24T06:42:01;12.27;;;7.03;;
10343;SDS011;5217;43.960;10.954;2023-04-24T06:44:30;31.37;;;21.00;;
10343;SDS011;5217;43.960;10.954;2023-04-24T06:46:58;18.40;;;13.07;;
10343;SDS011;5217;43.960;10.954;2023-04-24T06:49:26;16.90;;;11.70;;
10343;SDS011;5217;43.960;10.954;2023-04-24T06:51:56;10.97;;;3.90;;
10343;SDS011;5217;43.960;10.954;2023-04-24T06:54:24;10.77;;;4.33;;
10343;SDS011;5217;43.960;10.954;2023-04-24T06:56:53;9.40;;;3.63;;
10343;SDS011;5217;43.960;10.954;2023-04-24T06:59:21;10.10;;;3.40;;
10343;SDS011;5217;43.960;10.954;2023-04-24T07:01:50;9.63;;;3.33;;
10343;SDS011;5217;43.960;10.954;2023-04-24T07:04:20;9.30;;;3.53;;
10343;SDS011;5217;43.960;10.954;2023-04-24T07:06:51;12.90;;;3.70;;
10343;SDS011;5217;43.960;10.954;2023-04-24T07:09:24;7.32;;;3.13;;
10343;SDS011;5217;43.960;10.954;2023-04-24T07:11:53;9.87;;;3.40;;
10343;SDS011;5217;43.960;10.954;2023-04-24T07:14:22;10.07;;;3.47;;
10343;SDS011;5217;43.960;10.954;2023-04-24T07:16:51;12.23;;;3.43;;
10343;SDS011;5217;43.960;10.954;2023-04-24T07:19:19;7.97;;;3.30;;
10343;SDS011;5217;43.960;10.954;2023-04-24T07:21:47;9.97;;;3.70;;
10343;SDS011;5217;43.960;10.954;2023-04-24T07:24:16;12.43;;;6.13;;
10343;SDS011;5217;43.960;10.954;2023-04-24T07:26:45;8.13;;;3.97;;
10343;SDS011;5217;43.960;10.954;2023-04-24T07:29:14;10.43;;;3.73;;
10343;SDS011;5217;43.960;10.954;2023-04-24T07:31:42;8.87;;;3.50;;
10343;SDS011;5217;43.960;10.954;2023-04-24T07:34:11;7.53;;;2.90;;
10343;SDS011;5217;43.960;10.954;2023-04-24T07:36:39;7.53;;;3.00;;
10343;SDS011;5217;43.960;10.954;2023-04-24T07:39:08;10.57;;;3.47;;
10343;SDS011;5217;43.960;10.954;2023-04-24T07:41:37;6.60;;;2.77;;
10343;SDS011;5217;43.960;10.954;2023-04-24T07:44:06;8.60;;;3.40;;
10343;SDS011;5217;43.960;10.954;2023-04-24T07:46:35;13.23;;;3.80;;
10343;SDS011;5217;43.960;10.954;2023-04-24T07:49:03;10.67;;;3.60;;
10343;SDS011;5217;43.960;10.954;2023-04-24T07:51:39;12.47;;;4.10;;
10343;SDS011;5217;43.960;10.954;2023-04-24T07:54:08;10.40;;;4.10;;
10343;SDS011;5217;43.960;10.954;2023-04-24T07:56:37;11.97;;;3.57;;
10343;SDS011;5217;43.960;10.954;2023-04-24T07:59:07;13.20;;;3.90;;
10343;SDS011;5217;43.960;10.954;2023-04-24T08:01:36;12.93;;;4.23;;
10343;SDS011;5217;43.960;10.954;2023-04-24T08:04:04;10.57;;;3.70;;
10343;SDS011;5217;43.960;10.954;2023-04-24T08:06:33;7.90;;;3.20;;
10343;SDS011;5217;43.960;10.954;2023-04-24T08:09:01;8.10;;;3.17;;
10343;SDS011;5217;43.960;10.954;2023-04-24T08:11:30;8.90;;;3.40;;
10343;SDS011;5217;43.960;10.954;2023-04-24T08:13:59;7.93;;;3.20;;
10343;SDS011;5217;43.960;10.954;2023-04-24T08:16:29;10.70;;;3.80;;
10343;SDS011;5217;43.960;10.954;2023-04-24T08:18:57;9.73;;;3.50;;
10343;SDS011;5217;43.960;10.954;2023-04-24T08:21:25;8.00;;;3.83;;
10343;SDS011;5217;43.960;10.954;2023-04-24T08:23:54;6.57;;;3.27;;
10343;SDS011;5217;43.960;10.954;2023-04-24T08:26:22;7.87;;;3.70;;
10343;SDS011;5217;43.960;10.954;2023-04-24T08:28:51;10.17;;;3.53;;
10343;SDS011;5217;43.960;10.954;2023-04-24T08:31:19;8.03;;;3.60;;
10343;SDS011;5217;43.960;10.954;2023-04-24T08:33:50;5.40;;;3.07;;
10343;SDS011;5217;43.960;10.954;2023-04-24T08:36:19;8.25;;;3.60;;
10343;SDS011;5217;43.960;10.954;2023-04-24T08:38:49;8.27;;;3.43;;
10343;SDS011;5217;43.960;10.954;2023-04-24T08:41:17;7.13;;;3.40;;
10343;SDS011;5217;43.960;10.954;2023-04-24T08:43:47;7.83;;;3.30;;
10343;SDS011;5217;43.960;10.954;2023-04-24T08:46:16;10.43;;;3.72;;
10343;SDS011;5217;43.960;10.954;2023-04-24T08:48:46;8.83;;;3.40;;
10343;SDS011;5217;43.960;10.954;2023-04-24T08:51:16;6.40;;;3.27;;
10343;SDS011;5217;43.960;10.954;2023-04-24T08:53:45;6.90;;;2.87;;
10343;SDS011;5217;43.960;10.954;2023-04-24T08:56:14;9.07;;;3.22;;
10343;SDS011;5217;43.960;10.954;2023-04-24T08:58:42;6.22;;;2.90;;
10343;SDS011;5217;43.960;10.954;2023-04-24T09:01:11;13.20;;;3.72;;
10343;SDS011;5217;43.960;10.954;2023-04-24T09:03:40;8.75;;;2.75;;
10343;SDS011;5217;43.960;10.954;2023-04-24T09:06:09;7.03;;;2.97;;
10343;SDS011;5217;43.960;10.954;2023-04-24T09:08:40;7.93;;;3.00;;
10343;SDS011;5217;43.960;10.954;2023-04-24T09:11:10;6.03;;;2.90;;
10343;SDS011;5217;43.960;10.954;2023-04-24T09:13:39;7.40;;;3.00;;
10343;SDS011;5217;43.960;10.954;2023-04-24T09:16:08;10.55;;;3.75;;
10343;SDS011;5217;43.960;10.954;2023-04-24T09:18:36;7.80;;;2.90;;
10343;SDS011;5217;43.960;10.954;2023-04-24T09:21:06;7.03;;;2.93;;
10343;SDS011;5217;43.960;10.954;2023-04-24T09:23:36;7.72;;;3.28;;
10343;SDS011;5217;43.960;10.954;2023-04-24T09:26:05;8.50;;;3.28;;
10343;SDS011;5217;43.960;10.954;2023-04-24T09:28:37;10.75;;;3.60;;
10343;SDS011;5217;43.960;10.954;2023-04-24T09:31:07;5.90;;;2.75;;
10343;SDS011;5217;43.960;10.954;2023-04-24T09:33:37;9.13;;;3.33;;
10343;SDS011;5217;43.960;10.954;2023-04-24T09:36:06;8.02;;;2.95;;
10343;SDS011;5217;43.960;10.954;2023-04-24T09:38:35;10.80;;;3.40;;
10343;SDS011;5217;43.960;10.954;2023-04-24T09:41:06;8.90;;;3.20;;
10343;SDS011;5217;43.960;10.954;2023-04-24T09:43:35;8.52;;;2.85;;
10343;SDS011;5217;43.960;10.954;2023-04-24T09:46:05;9.05;;;2.90;;
10343;SDS011;5217;43.960;10.954;2023-04-24T09:48:36;11.30;;;3.83;;
10343;SDS011;5217;43.960;10.954;2023-04-24T09:51:06;11.07;;;3.50;;
10343;SDS011;5217;43.960;10.954;2023-04-24T09:53:37;9.07;;;3.28;;
10343;SDS011;5217;43.960;10.954;2023-04-24T09:56:08;9.15;;;3.35;;
10343;SDS011;5217;43.960;10.954;2023-04-24T09:58:38;10.32;;;3.28;;
10343;SDS011;5217;43.960;10.954;2023-04-24T10:01:07;8.52;;;3.00;;
10343;SDS011;5217;43.960;10.954;2023-04-24T10:03:35;8.25;;;2.97;;
10343;SDS011;5217;43.960;10.954;2023-04-24T10:06:07;9.55;;;3.22;;
10343;SDS011;5217;43.960;10.954;2023-04-24T10:08:38;9.95;;;3.00;;
10343;SDS011;5217;43.960;10.954;2023-04-24T10:11:09;8.32;;;2.83;;
10343;SDS011;5217;43.960;10.954;2023-04-24T10:13:37;10.38;;;3.63;;
10343;SDS011;5217;43.960;10.954;2023-04-24T10:16:08;9.43;;;3.00;;
10343;SDS011;5217;43.960;10.954;2023-04-24T10:18:37;7.40;;;3.10;;
10343;SDS011;5217;43.960;10.954;2023-04-24T10:21:06;9.65;;;3.20;;
10343;SDS011;5217;43.960;10.954;2023-04-24T10:23:35;10.13;;;3.13;;
10343;SDS011;5217;43.960;10.954;2023-04-24T10:26:04;6.88;;;2.45;;
10343;SDS011;5217;43.960;10.954;2023-04-24T10:28:34;5.28;;;2.70;;
10343;SDS011;5217;43.960;10.954;2023-04-24T10:31:04;8.55;;;2.80;;
10343;SDS011;5217;43.960;10.954;2023-04-24T10:33:33;10.32;;;2.92;;
10343;SDS011;5217;43.960;10.954;2023-04-24T10:36:01;9.75;;;3.00;;
10343;SDS011;5217;43.960;10.954;2023-04-24T10:38:30;9.43;;;3.00;;
10343;SDS011;5217;43.960;10.954;2023-04-24T10:41:06;7.68;;;2.85;;
10343;SDS011;5217;43.960;10.954;2023-04-24T10:43:38;6.55;;;2.38;;
10343;SDS011;5217;43.960;10.954;2023-04-24T10:46:08;7.35;;;2.58;;
10343;SDS011;5217;43.960;10.954;2023-04-24T10:48:41;7.45;;;2.50;;
10343;SDS011;5217;43.960;10.954;2023-04-24T10:51:11;12.07;;;3.47;;
10343;SDS011;5217;43.960;10.954;2023-04-24T10:53:40;9.65;;;3.00;;
10343;SDS011;5217;43.960;10.954;2023-04-24T10:56:09;10.38;;;3.08;;
10343;SDS011;5217;43.960;10.954;2023-04-24T10:58:40;7.38;;;2.60;;
10343;SDS011;5217;43.960;10.954;2023-04-24T11:01:22;10.30;;;2.65;;
10343;SDS011;5217;43.960;10.954;2023-04-24T11:03:54;6.25;;;2.60;;
10343;SDS011;5217;43.960;10.954;2023-04-24T11:06:30;6.05;;;2.30;;
10343;SDS011;5217;43.960;10.954;2023-04-24T11:09:01;8.63;;;2.35;;
10343;SDS011;5217;43.960;10.954;2023-04-24T11:11:31;6.63;;;2.60;;
10343;SDS011;5217;43.960;10.954;2023-04-24T11:14:03;5.60;;;2.28;;
10343;SDS011;5217;43.960;10.954;2023-04-24T11:16:34;6.70;;;2.25;;
10343;SDS011;5217;43.960;10.954;2023-04-24T11:19:05;7.22;;;2.42;;
10343;SDS011;5217;43.960;10.954;2023-04-24T11:21:40;7.80;;;2.30;;
10343;SDS011;5217;43.960;10.954;2023-04-24T11:24:26;5.10;;;2.45;;
10343;SDS011;5217;43.960;10.954;2023-04-24T11:27:01;10.48;;;3.05;;
10343;SDS011;5217;43.960;10.954;2023-04-24T11:29:45;13.65;;;3.10;;
10343;SDS011;5217;43.960;10.954;2023-04-24T11:32:16;6.75;;;2.22;;
10343;SDS011;5217;43.960;10.954;2023-04-24T11:34:47;5.97;;;2.50;;
10343;SDS011;5217;43.960;10.954;2023-04-24T11:37:16;6.80;;;2.15;;
10343;SDS011;5217;43.960;10.954;2023-04-24T11:39:45;6.95;;;2.53;;
10343;SDS011;5217;43.960;10.954;2023-04-24T11:42:14;5.60;;;2.25;;
10343;SDS011;5217;43.960;10.954;2023-04-24T11:44:44;8.80;;;2.70;;
10343;SDS011;5217;43.960;10.954;2023-04-24T11:47:14;10.48;;;2.72;;
10343;SDS011;5217;43.960;10.954;2023-04-24T11:49:43;10.82;;;3.47;;
10343;SDS011;5217;43.960;10.954;2023-04-24T11:52:11;12.75;;;2.90;;
10343;SDS011;5217;43.960;10.954;2023-04-24T11:54:47;8.85;;;2.92;;
10343;SDS011;5217;43.960;10.954;2023-04-24T11:57:16;7.68;;;2.80;;
10343;SDS011;5217;43.960;10.954;2023-04-24T11:59:49;7.88;;;2.60;;
10343;SDS011;5217;43.960;10.954;2023-04-24T12:02:21;6.53;;;2.58;;
10343;SDS011;5217;43.960;10.954;2023-04-24T12:04:51;11.38;;;2.70;;
10343;SDS011;5217;43.960;10.954;2023-04-24T12:07:20;8.50;;;2.60;;
10343;SDS011;5217;43.960;10.954;2023-04-24T12:09:55;8.68;;;2.53;;
10343;SDS011;5217;43.960;10.954;2023-04-24T12:12:25;6.95;;;2.53;;
10343;SDS011;5217;43.960;10.954;2023-04-24T12:14:56;10.30;;;2.97;;
10343;SDS011;5217;43.960;10.954;2023-04-24T12:17:26;7.63;;;2.90;;
10343;SDS011;5217;43.960;10.954;2023-04-24T12:19:59;6.35;;;2.20;;
10343;SDS011;5217;43.960;10.954;2023-04-24T12:22:42;8.68;;;2.55;;
10343;SDS011;5217;43.960;10.954;2023-04-24T12:25:12;6.47;;;2.63;;
10343;SDS011;5217;43.960;10.954;2023-04-24T12:27:41;7.57;;;2.60;;
10343;SDS011;5217;43.960;10.954;2023-04-24T12:30:12;11.25;;;3.03;;
10343;SDS011;5217;43.960;10.954;2023-04-24T12:32:42;10.13;;;2.70;;
10343;SDS011;5217;43.960;10.954;2023-04-24T12:35:11;7.30;;;2.60;;
10343;SDS011;5217;43.960;10.954;2023-04-24T12:37:42;7.68;;;2.70;;
10343;SDS011;5217;43.960;10.954;2023-04-24T12:40:13;7.07;;;2.53;;
10343;SDS011;5217;43.960;10.954;2023-04-24T12:42:42;8.52;;;2.53;;
10343;SDS011;5217;43.960;10.954;2023-04-24T12:45:13;7.57;;;2.47;;
10343;SDS011;5217;43.960;10.954;2023-04-24T12:47:42;7.88;;;2.53;;
10343;SDS011;5217;43.960;10.954;2023-04-24T12:50:12;6.70;;;2.60;;
10343;SDS011;5217;43.960;10.954;2023-04-24T12:52:42;7.05;;;2.38;;
10343;SDS011;5217;43.960;10.954;2023-04-24T12:55:11;10.10;;;3.00;;
10343;SDS011;5217;43.960;10.954;2023-04-24T12:57:40;8.23;;;2.65;;
10343;SDS011;5217;43.960;10.954;2023-04-24T13:00:08;8.07;;;2.70;;
10343;SDS011;5217;43.960;10.954;2023-04-24T13:02:38;7.50;;;2.55;;
10343;SDS011;5217;43.960;10.954;2023-04-24T13:05:07;8.18;;;2.60;;
10343;SDS011;5217;43.960;10.954;2023-04-24T13:07:38;7.35;;;2.50;;
10343;SDS011;5217;43.960;10.954;2023-04-24T13:15:34;7.72;;;2.75;;
10343;SDS011;5217;43.960;10.954;2023-04-24T13:18:03;6.75;;;2.20;;
10343;SDS011;5217;43.960;10.954;2023-04-24T13:20:31;8.00;;;2.75;;
10343;SDS011;5217;43.960;10.954;2023-04-24T13:23:01;5.63;;;2.58;;
10343;SDS011;5217;43.960;10.954;2023-04-24T13:25:34;4.63;;;2.00;;
10343;SDS011;5217;43.960;10.954;2023-04-24T13:28:03;5.75;;;2.15;;
10343;SDS011;5217;43.960;10.954;2023-04-24T13:30:33;6.75;;;2.53;;
10343;SDS011;5217;43.960;10.954;2023-04-24T13:33:02;6.50;;;2.50;;
10343;SDS011;5217;43.960;10.954;2023-04-24T13:35:30;4.55;;;2.22;;
10343;SDS011;5217;43.960;10.954;2023-04-24T13:37:59;5.72;;;2.72;;
10343;SDS011;5217;43.960;10.954;2023-04-24T13:40:32;9.15;;;4.53;;
10343;SDS011;5217;43.960;10.954;2023-04-24T13:43:01;12.15;;;7.20;;
10343;SDS011;5217;43.960;10.954;2023-04-24T13:45:31;27.15;;;15.07;;
10343;SDS011;5217;43.960;10.954;2023-04-24T13:47:59;25.48;;;13.90;;
10343;SDS011;5217;43.960;10.954;2023-04-24T13:50:29;12.68;;;7.32;;
10343;SDS011;5217;43.960;10.954;2023-04-24T13:52:57;12.57;;;4.35;;
10343;SDS011;5217;43.960;10.954;2023-04-24T13:55:28;12.90;;;4.10;;
10343;SDS011;5217;43.960;10.954;2023-04-24T13:57:57;9.60;;;3.85;;
10343;SDS011;5217;43.960;10.954;2023-04-24T14:00:25;11.35;;;3.83;;
10343;SDS011;5217;43.960;10.954;2023-04-24T14:02:55;6.70;;;3.28;;
10343;SDS011;5217;43.960;10.954;2023-04-24T14:05:24;6.45;;;2.75;;
10343;SDS011;5217;43.960;10.954;2023-04-24T14:07:52;5.28;;;2.63;;
10343;SDS011;5217;43.960;10.954;2023-04-24T14:10:20;4.75;;;2.63;;
10343;SDS011;5217;43.960;10.954;2023-04-24T14:12:49;5.15;;;2.53;;
10343;SDS011;5217;43.960;10.954;2023-04-24T14:15:19;9.65;;;2.90;;
10343;SDS011;5217;43.960;10.954;2023-04-24T14:17:48;8.30;;;3.00;;
10343;SDS011;5217;43.960;10.954;2023-04-24T14:20:18;6.30;;;2.50;;
10343;SDS011;5217;43.960;10.954;2023-04-24T14:22:46;5.22;;;2.47;;
10343;SDS011;5217;43.960;10.954;2023-04-24T14:25:15;4.60;;;2.28;;
10343;SDS011;5217;43.960;10.954;2023-04-24T14:27:43;6.18;;;2.13;;
10343;SDS011;5217;43.960;10.954;2023-04-24T14:30:13;5.13;;;2.45;;
10343;SDS011;5217;43.960;10.954;2023-04-24T14:32:45;5.82;;;2.40;;
10343;SDS011;5217;43.960;10.954;2023-04-24T14:35:13;5.22;;;2.40;;
10343;SDS011;5217;43.960;10.954;2023-04-24T14:37:43;5.07;;;2.42;;
10343;SDS011;5217;43.960;10.954;2023-04-24T14:40:11;4.15;;;2.50;;
10343;SDS011;5217;43.960;10.954;2023-04-24T14:43:00;4.05;;;2.60;;
10343;SDS011;5217;43.960;10.954;2023-04-24T14:45:28;6.93;;;4.40;;
10343;SDS011;5217;43.960;10.954;2023-04-24T14:47:57;9.57;;;5.85;;
10343;SDS011;5217;43.960;10.954;2023-04-24T14:50:25;10.90;;;8.13;;
10343;SDS011;5217;43.960;10.954;2023-04-24T14:52:56;15.68;;;11.70;;
10343;SDS011;5217;43.960;10.954;2023-04-24T14:55:24;20.35;;;15.52;;
10343;SDS011;5217;43.960;10.954;2023-04-24T14:57:53;16.33;;;11.30;;
10343;SDS011;5217;43.960;10.954;2023-04-24T15:00:22;10.80;;;8.15;;